PWSweather.com
Personal Weather Stations
Station Observations
MARICOPA
Cobblestone Farms, Maricopa, AZ 85139

Cobblestone FarmsMaricopa, AZ 85139

Lat: 33.076, Lon: -112.0445

Elevation: 1148

Station Type: LaCrosse 2310/15

http://weather.azkiwis.net

Latest ConditionsUpdated 8:45:17 AM MST Saturday, Oct 25, 2014
Currently Today's Max Today's Min Today's Average
Temperature 68.8°F20.4°C 70.2°F21.2°C 61.5°F16.4°C 65.5°F18.6°C
Dew Point 54.4°F12.4°C 54.4°F12.4°C 49.4°F9.7°C 51.0°F10.6°C
Winds 0.1 mph E0.2 kmh E 2.6 mph SSE4.2 kmh SSE - 0.2 mph 0.3 kmh
Wind Gusts -- 4.9 mph7.9 kmh - -
Humidity 60% 67% 50% 60%
Pressure 30.04 in1017.3 mb 30.04 in1017.3 mb 29.98 in1015.2 mb -
Hour Temp Dew Point Humidity Winds Wind Gusts Pressure Precip Precip Rate Daily Precip Total
08:45 AM 68.8°F20.4°C 54.4°F12.4°C 60% 0.1 mph E0.2 kmh E -- 30.04 in1017.3 mb 0.00 in0.0 mm 0.00 in/hr0.0 mm/hr 0.00 in0.0 mm
08:30 AM 67.1°F19.5°C 54.1°F12.3°C 63% Calm Calm -- 30.04 in1017.3 mb 0.00 in0.0 mm 0.00 in/hr0.0 mm/hr 0.00 in0.0 mm
08:15 AM 65.3°F18.5°C 53.2°F11.8°C 65% 0.8 mph SSE1.3 kmh SSE 1.6 mph2.6 kmh 30.03 in1016.9 mb 0.00 in0.0 mm 0.00 in/hr0.0 mm/hr 0.00 in0.0 mm
08:00 AM 64.0°F17.8°C 52.4°F11.3°C 66% Calm Calm -- 30.03 in1016.9 mb 0.00 in0.0 mm 0.00 in/hr0.0 mm/hr 0.00 in0.0 mm
07:45 AM 63.1°F17.3°C 51.6°F10.9°C 66% Calm Calm -- 30.03 in1016.9 mb 0.00 in0.0 mm 0.00 in/hr0.0 mm/hr 0.00 in0.0 mm
07:30 AM 62.7°F17.1°C 51.6°F10.9°C 67% Calm Calm -- 30.02 in1016.6 mb 0.00 in0.0 mm 0.00 in/hr0.0 mm/hr 0.00 in0.0 mm
07:15 AM 62.2°F16.8°C 50.7°F10.4°C 66% 0.4 mph WSW0.6 kmh WSW 0.7 mph1.1 kmh 30.02 in1016.6 mb 0.00 in0.0 mm 0.00 in/hr0.0 mm/hr 0.00 in0.0 mm
07:00 AM 62.2°F16.8°C 50.7°F10.4°C 66% Calm Calm 1.3 mph2.1 kmh 30.01 in1016.3 mb 0.00 in0.0 mm 0.00 in/hr0.0 mm/hr 0.00 in0.0 mm
06:45 AM 62.0°F16.7°C 50.5°F10.3°C 66% Calm Calm -- 30.01 in1016.3 mb 0.00 in0.0 mm 0.00 in/hr0.0 mm/hr 0.00 in0.0 mm
06:30 AM 61.8°F16.6°C 50.7°F10.4°C 67% Calm Calm -- 30.00 in1015.9 mb 0.00 in0.0 mm 0.00 in/hr0.0 mm/hr 0.00 in0.0 mm
06:15 AM 61.5°F16.4°C 50.1°F10.1°C 66% Calm Calm -- 30.00 in1015.9 mb 0.00 in0.0 mm 0.00 in/hr0.0 mm/hr 0.00 in0.0 mm
06:00 AM 61.5°F16.4°C 50.1°F10.1°C 66% Calm Calm -- 29.99 in1015.6 mb 0.00 in0.0 mm 0.00 in/hr0.0 mm/hr 0.00 in0.0 mm
05:45 AM 61.7°F16.5°C 49.8°F9.9°C 65% Calm Calm -- 30.00 in1015.9 mb 0.00 in0.0 mm 0.00 in/hr0.0 mm/hr 0.00 in0.0 mm
05:30 AM 62.1°F16.7°C 49.4°F9.7°C 63% Calm Calm -- 30.00 in1015.9 mb 0.00 in0.0 mm 0.00 in/hr0.0 mm/hr 0.00 in0.0 mm
05:15 AM 62.6°F17.0°C 49.8°F9.9°C 63% Calm Calm -- 30.00 in1015.9 mb 0.00 in0.0 mm 0.00 in/hr0.0 mm/hr 0.00 in0.0 mm
05:00 AM 63.3°F17.4°C 49.6°F9.8°C 61% Calm Calm -- 30.00 in1015.9 mb 0.00 in0.0 mm 0.00 in/hr0.0 mm/hr 0.00 in0.0 mm
04:45 AM 64.0°F17.8°C 50.3°F10.2°C 61% Calm Calm -- 29.99 in1015.6 mb 0.00 in0.0 mm 0.00 in/hr0.0 mm/hr 0.00 in0.0 mm
04:30 AM 64.6°F18.1°C 50.8°F10.4°C 61% Calm Calm -- 29.99 in1015.6 mb 0.00 in0.0 mm 0.00 in/hr0.0 mm/hr 0.00 in0.0 mm
04:15 AM 64.6°F18.1°C 50.4°F10.2°C 60% Calm Calm -- 29.99 in1015.6 mb 0.00 in0.0 mm 0.00 in/hr0.0 mm/hr 0.00 in0.0 mm
04:00 AM 64.8°F18.2°C 50.1°F10.1°C 59% Calm Calm -- 29.98 in1015.2 mb 0.00 in0.0 mm 0.00 in/hr0.0 mm/hr 0.00 in0.0 mm
03:45 AM 64.9°F18.3°C 50.3°F10.2°C 59% Calm Calm -- 29.99 in1015.6 mb 0.00 in0.0 mm 0.00 in/hr0.0 mm/hr 0.00 in0.0 mm
03:30 AM 65.1°F18.4°C 50.9°F10.5°C 60% Calm Calm -- 29.98 in1015.2 mb 0.00 in0.0 mm 0.00 in/hr0.0 mm/hr 0.00 in0.0 mm
03:15 AM 65.3°F18.5°C 50.6°F10.3°C 59% Calm Calm -- 29.99 in1015.6 mb 0.00 in0.0 mm 0.00 in/hr0.0 mm/hr 0.00 in0.0 mm
03:00 AM 65.8°F18.8°C 51.1°F10.6°C 59% Calm Calm -- 29.99 in1015.6 mb 0.00 in0.0 mm 0.00 in/hr0.0 mm/hr 0.00 in0.0 mm
02:45 AM 66.2°F19.0°C 51.0°F10.6°C 58% Calm Calm -- 29.99 in1015.6 mb 0.00 in0.0 mm 0.00 in/hr0.0 mm/hr 0.00 in0.0 mm
02:30 AM 66.7°F19.3°C 50.5°F10.3°C 56% Calm Calm -- 29.99 in1015.6 mb 0.00 in0.0 mm 0.00 in/hr0.0 mm/hr 0.00 in0.0 mm
02:15 AM 67.3°F19.6°C 51.0°F10.6°C 56% Calm Calm -- 29.98 in1015.2 mb 0.00 in0.0 mm 0.00 in/hr0.0 mm/hr 0.00 in0.0 mm
02:00 AM 68.1°F20.1°C 51.3°F10.7°C 55% Calm Calm -- 29.99 in1015.6 mb 0.00 in0.0 mm 0.00 in/hr0.0 mm/hr 0.00 in0.0 mm
01:45 AM 68.9°F20.5°C 50.5°F10.3°C 52% Calm Calm -- 29.99 in1015.6 mb 0.00 in0.0 mm 0.00 in/hr0.0 mm/hr 0.00 in0.0 mm
01:30 AM 69.5°F20.8°C 51.1°F10.6°C 52% 0.2 mph W0.3 kmh W -- 29.99 in1015.6 mb 0.00 in0.0 mm 0.00 in/hr0.0 mm/hr 0.00 in0.0 mm
01:15 AM 70.0°F21.1°C 51.5°F10.8°C 52% 0.3 mph SSE0.5 kmh SSE 0.4 mph0.6 kmh 30.00 in1015.9 mb 0.00 in0.0 mm 0.00 in/hr0.0 mm/hr 0.00 in0.0 mm
01:00 AM 70.0°F21.1°C 51.5°F10.8°C 52% 1.8 mph SSE2.9 kmh SSE 2.7 mph4.3 kmh 29.99 in1015.6 mb 0.00 in0.0 mm 0.00 in/hr0.0 mm/hr 0.00 in0.0 mm
12:45 AM 69.8°F21.0°C 51.4°F10.8°C 52% 1.7 mph S2.7 kmh S 4.9 mph7.9 kmh 29.99 in1015.6 mb 0.00 in0.0 mm 0.00 in/hr0.0 mm/hr 0.00 in0.0 mm
12:30 AM 69.8°F21.0°C 50.9°F10.5°C 51% 0.6 mph SSE1.0 kmh SSE 1.1 mph1.8 kmh 29.99 in1015.6 mb 0.00 in0.0 mm 0.00 in/hr0.0 mm/hr 0.00 in0.0 mm
12:15 AM 69.8°F21.0°C 50.3°F10.2°C 50% 2.6 mph SSE4.2 kmh SSE 4.5 mph7.2 kmh 29.98 in1015.2 mb 0.00 in0.0 mm 0.00 in/hr0.0 mm/hr 0.00 in0.0 mm
12:00 AM 70.2°F21.2°C 50.6°F10.3°C 50% Calm Calm 0.7 mph1.1 kmh 29.99 in1015.6 mb 0.00 in0.0 mm 0.00 in/hr0.0 mm/hr 0.00 in0.0 mm